createdAt,value
2022-08-02T00:00:35.634Z,0.87
2022-08-02T00:03:02.729Z,0.90
2022-08-02T00:05:29.767Z,1.00
2022-08-02T00:07:56.779Z,0.80
2022-08-02T00:10:23.804Z,0.77
2022-08-02T00:12:50.856Z,0.77
2022-08-02T00:15:20.189Z,0.80
2022-08-02T00:17:48.586Z,0.80
2022-08-02T00:20:15.912Z,0.90
2022-08-02T00:22:42.987Z,1.17
2022-08-02T00:25:10.272Z,1.20
2022-08-02T00:27:37.524Z,1.10
2022-08-02T00:30:05.201Z,1.03
2022-08-02T00:32:32.350Z,1.20
2022-08-02T00:34:59.338Z,1.10
2022-08-02T00:37:26.440Z,1.00
2022-08-02T00:39:57.520Z,1.00
2022-08-02T00:42:24.729Z,1.07
2022-08-02T00:44:51.750Z,1.03
2022-08-02T00:47:19.938Z,0.90
2022-08-02T00:49:47.618Z,0.90
2022-08-02T00:52:14.909Z,0.90
2022-08-02T00:54:42.372Z,1.10
2022-08-02T00:57:09.487Z,1.00
2022-08-02T00:59:36.640Z,1.07
2022-08-02T01:02:03.704Z,1.07
2022-08-02T01:04:32.198Z,1.10
2022-08-02T01:07:01.262Z,0.90
2022-08-02T01:09:28.506Z,1.10
2022-08-02T01:11:55.509Z,1.23
2022-08-02T01:14:24.920Z,1.10
2022-08-02T01:17:12.592Z,0.90
2022-08-02T01:19:57.899Z,0.97
2022-08-02T01:23:07.886Z,0.83
2022-08-02T01:26:02.903Z,1.00
2022-08-02T01:28:39.033Z,1.00
2022-08-02T01:31:28.570Z,1.27
2022-08-02T01:34:01.255Z,1.10
2022-08-02T01:36:32.917Z,0.90
2022-08-02T01:39:01.889Z,1.00
2022-08-02T01:41:30.726Z,0.90
2022-08-02T01:44:00.577Z,0.90
2022-08-02T01:46:30.434Z,0.80
2022-08-02T01:49:01.890Z,1.10
2022-08-02T01:51:48.009Z,1.20
2022-08-02T01:54:17.680Z,1.33
2022-08-02T01:56:45.985Z,1.27
2022-08-02T01:59:16.861Z,1.30
2022-08-02T02:01:46.151Z,1.50
2022-08-02T02:04:15.504Z,1.13
2022-08-02T02:06:45.041Z,1.20
2022-08-02T02:09:14.879Z,1.17
2022-08-02T02:12:06.258Z,1.10
2022-08-02T02:14:35.745Z,1.10
2022-08-02T02:17:03.554Z,1.27
2022-08-02T02:19:33.388Z,1.40
2022-08-02T02:22:00.396Z,1.40
2022-08-02T02:24:29.661Z,1.13
2022-08-02T02:27:00.120Z,1.33
2022-08-02T02:29:29.981Z,1.20
2022-08-02T02:32:00.418Z,1.50
2022-08-02T02:34:32.613Z,1.37
2022-08-02T02:37:04.683Z,1.73
2022-08-02T02:39:33.709Z,1.40
2022-08-02T02:42:04.172Z,1.40
2022-08-02T02:44:32.155Z,1.10
2022-08-02T02:47:00.832Z,1.60
2022-08-02T02:49:30.881Z,1.30
2022-08-02T02:51:58.382Z,1.60
2022-08-02T02:54:34.324Z,1.23
2022-08-02T02:57:04.517Z,1.37
2022-08-02T02:59:34.282Z,1.47
2022-08-02T03:02:03.046Z,1.70
2022-08-02T03:04:55.856Z,1.80
2022-08-02T03:07:18.806Z,1.77
2022-08-02T03:09:47.363Z,4.50
2022-08-02T03:12:27.120Z,2.10
2022-08-02T03:15:02.150Z,1.90
2022-08-02T03:17:41.598Z,1.93
2022-08-02T03:20:14.295Z,1.40
2022-08-02T03:22:41.872Z,1.57
2022-08-02T03:25:10.562Z,2.07
2022-08-02T03:27:39.105Z,2.87
2022-08-02T03:30:08.200Z,2.60
2022-08-02T03:32:37.242Z,2.13
2022-08-02T03:35:06.875Z,1.83
2022-08-02T03:37:34.253Z,1.87
2022-08-02T03:40:01.754Z,1.53
2022-08-02T03:42:31.569Z,1.67
2022-08-02T03:45:03.749Z,1.60
2022-08-02T03:47:33.937Z,2.10
2022-08-02T03:50:01.509Z,2.43
2022-08-02T03:52:32.800Z,2.00
2022-08-02T03:55:00.090Z,1.90
2022-08-02T03:57:27.293Z,2.00
2022-08-02T03:59:54.244Z,2.93
2022-08-02T04:02:21.311Z,2.10
2022-08-02T04:04:48.430Z,1.90
2022-08-02T04:07:15.459Z,2.87
2022-08-02T04:10:02.602Z,2.23
2022-08-02T04:12:30.493Z,1.60
2022-08-02T04:14:58.832Z,1.93
2022-08-02T04:17:28.268Z,2.40
2022-08-02T04:20:01.925Z,2.67
2022-08-02T04:22:37.766Z,3.03
2022-08-02T04:25:07.305Z,1.83
2022-08-02T04:27:50.559Z,2.60
2022-08-02T04:30:26.033Z,7.17
2022-08-02T04:32:53.363Z,7.17
2022-08-02T04:35:20.931Z,5.60
2022-08-02T04:38:08.522Z,4.37
2022-08-02T04:40:36.156Z,3.67
2022-08-02T04:43:03.203Z,4.50
2022-08-02T04:45:31.033Z,4.07
2022-08-02T04:48:06.089Z,3.90
2022-08-02T04:50:34.240Z,4.10
2022-08-02T04:53:02.110Z,4.70
2022-08-02T04:55:30.042Z,2.83
2022-08-02T04:57:58.586Z,2.53
2022-08-02T05:00:29.168Z,3.47
2022-08-02T05:02:57.347Z,3.03
2022-08-02T05:05:25.744Z,3.23
2022-08-02T05:07:53.020Z,3.80
2022-08-02T05:10:20.756Z,3.43
2022-08-02T05:12:51.983Z,3.27
2022-08-02T05:15:19.719Z,4.20
2022-08-02T05:17:49.062Z,3.50
2022-08-02T05:20:18.411Z,4.57
2022-08-02T05:22:45.657Z,4.97
2022-08-02T05:25:13.007Z,4.50
2022-08-02T05:27:40.125Z,3.73
2022-08-02T05:30:07.749Z,2.50
2022-08-02T05:32:34.761Z,3.80
2022-08-02T05:35:02.459Z,2.77
2022-08-02T05:37:33.162Z,2.87
2022-08-02T05:40:02.590Z,2.57
2022-08-02T05:42:33.466Z,2.50
2022-08-02T05:45:01.364Z,2.90
2022-08-02T05:47:30.513Z,1.80
2022-08-02T05:49:57.562Z,1.47
2022-08-02T05:52:31.243Z,1.70
2022-08-02T05:55:09.982Z,2.13
2022-08-02T05:57:58.103Z,1.53
2022-08-02T06:00:30.744Z,2.73
2022-08-02T06:03:39.315Z,1.63
2022-08-02T06:06:14.661Z,1.63
2022-08-02T06:08:55.965Z,1.63
2022-08-02T06:11:27.283Z,1.83
2022-08-02T06:13:54.681Z,2.73
2022-08-02T06:16:32.066Z,2.67
2022-08-02T06:19:00.916Z,1.97
2022-08-02T06:22:32.330Z,1.10
2022-08-02T06:24:19.258Z,2.23
2022-08-02T06:26:52.671Z,1.83
2022-08-02T06:29:23.499Z,1.93
2022-08-02T06:31:53.352Z,1.57
2022-08-02T06:34:20.784Z,1.70
2022-08-02T06:37:06.707Z,1.30
2022-08-02T06:39:48.670Z,2.43
2022-08-02T06:42:27.029Z,0.90
2022-08-02T06:44:58.087Z,1.60
2022-08-02T06:47:26.616Z,1.00
2022-08-02T06:49:54.952Z,0.83
2022-08-02T06:52:29.295Z,1.27
2022-08-02T06:55:01.762Z,1.07
2022-08-02T06:57:31.674Z,1.23
2022-08-02T07:00:02.503Z,1.30
2022-08-02T07:02:31.881Z,1.30
2022-08-02T07:04:59.587Z,1.30
2022-08-02T07:07:28.145Z,2.00
2022-08-02T07:09:56.432Z,1.17
2022-08-02T07:12:33.781Z,1.47
2022-08-02T07:15:02.641Z,1.10
2022-08-02T07:17:32.867Z,1.40
2022-08-02T07:20:01.504Z,1.40
2022-08-02T07:22:31.185Z,2.27
2022-08-02T07:24:59.575Z,1.57
2022-08-02T07:27:27.686Z,0.80
2022-08-02T07:29:56.011Z,1.20
2022-08-02T07:32:27.226Z,1.20
2022-08-02T07:34:55.593Z,1.30
2022-08-02T07:37:53.898Z,2.23
2022-08-02T07:40:15.120Z,1.30
2022-08-02T07:42:47.797Z,1.10
2022-08-02T07:45:14.991Z,1.20
2022-08-02T07:47:43.992Z,1.50
2022-08-02T07:50:12.841Z,1.00
2022-08-02T07:52:41.046Z,0.90
2022-08-02T07:55:09.595Z,2.50
2022-08-02T07:57:41.270Z,1.53
2022-08-02T08:00:12.112Z,1.90
2022-08-02T08:02:39.668Z,1.40
2022-08-02T08:05:07.332Z,1.10
2022-08-02T08:07:35.173Z,1.30
2022-08-02T08:10:03.289Z,1.50
2022-08-02T08:12:31.062Z,1.60
2022-08-02T08:14:58.096Z,1.23
2022-08-02T08:17:25.171Z,1.20
2022-08-02T08:19:53.090Z,1.23
2022-08-02T08:22:20.981Z,1.27
2022-08-02T08:24:48.690Z,1.60
2022-08-02T08:27:18.404Z,1.00
2022-08-02T08:29:46.124Z,5.80
2022-08-02T08:32:17.180Z,1.80
2022-08-02T08:34:45.541Z,1.80
2022-08-02T08:37:16.944Z,1.60
2022-08-02T08:39:58.088Z,1.20
2022-08-02T08:42:31.197Z,1.40
2022-08-02T08:44:59.851Z,1.23
2022-08-02T08:47:41.912Z,1.40
2022-08-02T08:50:18.043Z,1.27
2022-08-02T08:53:12.230Z,2.07
2022-08-02T08:55:41.190Z,1.50
2022-08-02T08:58:08.323Z,1.33
2022-08-02T09:00:36.511Z,1.30
2022-08-02T09:03:08.636Z,1.20
2022-08-02T09:05:37.282Z,1.20
2022-08-02T09:08:05.365Z,1.40
2022-08-02T09:10:44.352Z,5.40
2022-08-02T09:13:38.934Z,1.63
2022-08-02T09:16:12.255Z,1.33
2022-08-02T09:18:45.546Z,1.63
2022-08-02T09:21:15.039Z,1.20
2022-08-02T09:23:47.223Z,1.40
2022-08-02T09:26:16.585Z,1.40
2022-08-02T09:28:48.498Z,1.40
2022-08-02T09:31:18.422Z,2.40
2022-08-02T09:33:50.355Z,1.27
2022-08-02T09:36:17.653Z,1.20
2022-08-02T09:39:03.648Z,1.50
2022-08-02T09:41:33.547Z,1.40
2022-08-02T09:44:06.536Z,1.43
2022-08-02T09:46:54.290Z,1.70
2022-08-02T09:49:22.107Z,1.20
2022-08-02T09:51:51.755Z,1.17
2022-08-02T09:54:25.732Z,1.80
2022-08-02T09:56:55.125Z,1.27
2022-08-02T09:59:26.875Z,1.30
2022-08-02T10:02:02.031Z,1.60
2022-08-02T10:04:33.827Z,1.40
2022-08-02T10:07:04.167Z,1.63
2022-08-02T10:09:32.372Z,1.30
2022-08-02T10:12:00.326Z,2.00
2022-08-02T10:14:28.145Z,2.17
2022-08-02T10:16:57.350Z,2.27
2022-08-02T10:20:01.248Z,1.40
2022-08-02T10:22:14.497Z,1.27
2022-08-02T10:24:48.337Z,1.50
2022-08-02T10:27:20.672Z,1.47
2022-08-02T10:29:54.065Z,3.60
2022-08-02T10:32:36.744Z,1.40
2022-08-02T10:35:19.471Z,1.77
2022-08-02T10:38:01.328Z,2.10
2022-08-02T10:40:48.747Z,1.47
2022-08-02T10:43:37.287Z,1.50
2022-08-02T10:46:25.530Z,1.30
2022-08-02T10:52:05.980Z,1.43
2022-08-02T10:54:36.605Z,1.40
2022-08-02T10:57:15.389Z,1.30
2022-08-02T10:59:43.835Z,1.43
2022-08-02T11:02:12.512Z,1.53
2022-08-02T11:04:39.691Z,1.27
2022-08-02T11:07:21.237Z,1.40
2022-08-02T11:09:50.120Z,1.20
2022-08-02T11:12:20.126Z,1.67
2022-08-02T11:15:00.512Z,1.43
2022-08-02T11:17:38.169Z,1.50
2022-08-02T11:20:11.252Z,1.50
2022-08-02T11:22:44.038Z,1.40
2022-08-02T11:25:25.888Z,1.50
2022-08-02T11:27:52.766Z,1.73
2022-08-02T11:30:26.543Z,1.83
2022-08-02T11:32:59.119Z,1.60
2022-08-02T11:35:39.832Z,3.63
2022-08-02T11:38:19.063Z,1.70
2022-08-02T11:40:47.411Z,1.10
2022-08-02T11:43:19.466Z,2.47
2022-08-02T11:45:47.065Z,1.40
2022-08-02T11:48:14.061Z,1.20
2022-08-02T11:50:41.101Z,1.47
2022-08-02T11:53:16.715Z,1.50
2022-08-02T11:55:43.764Z,1.37
2022-08-02T11:58:11.822Z,1.10
2022-08-02T12:00:39.416Z,1.30
2022-08-02T12:03:07.198Z,1.57
2022-08-02T12:08:25.305Z,1.30
2022-08-02T12:10:53.422Z,1.40
2022-08-02T12:13:20.476Z,1.20
2022-08-02T12:15:48.228Z,1.20
2022-08-02T12:18:37.469Z,1.50
2022-08-02T12:21:20.539Z,1.30
2022-08-02T12:24:00.485Z,1.90
2022-08-02T12:26:30.098Z,1.30
2022-08-02T12:29:01.632Z,2.00
2022-08-02T12:31:56.245Z,1.70
2022-08-02T12:34:28.718Z,1.90
2022-08-02T12:36:59.017Z,1.37
2022-08-02T12:39:39.375Z,1.30
2022-08-02T12:42:08.722Z,1.33
2022-08-02T12:44:51.499Z,1.47
2022-08-02T12:47:19.107Z,1.40
2022-08-02T12:50:29.560Z,1.70
2022-08-02T12:53:08.681Z,1.20
2022-08-02T12:56:00.886Z,1.20
2022-08-02T12:58:28.583Z,1.43
2022-08-02T13:00:58.464Z,1.17
2022-08-02T13:04:10.963Z,1.20
2022-08-02T13:06:39.878Z,1.60
2022-08-02T13:09:01.549Z,1.63
2022-08-02T13:11:28.908Z,1.40
2022-08-02T13:13:56.244Z,1.43
2022-08-02T13:16:30.691Z,1.40
2022-08-02T13:18:59.408Z,1.30
2022-08-02T13:21:39.876Z,1.53
2022-08-02T13:24:20.800Z,1.40
2022-08-02T13:26:56.038Z,1.10
2022-08-02T13:29:23.105Z,1.40
2022-08-02T13:31:50.050Z,1.53
2022-08-02T13:34:17.487Z,1.70
2022-08-02T13:36:45.148Z,1.30
2022-08-02T13:39:12.791Z,1.60
2022-08-02T13:41:39.884Z,1.50
2022-08-02T13:44:10.501Z,1.50
2022-08-02T13:46:45.119Z,1.40
2022-08-02T13:49:19.522Z,1.70
2022-08-02T13:51:48.362Z,1.50
2022-08-02T13:54:16.631Z,1.50
2022-08-02T13:56:45.068Z,2.03
2022-08-02T13:59:54.630Z,1.60
2022-08-02T14:01:59.697Z,1.60
2022-08-02T14:04:27.352Z,1.77
2022-08-02T14:06:54.558Z,1.83
2022-08-02T14:09:26.163Z,1.53
2022-08-02T14:11:53.116Z,1.43
2022-08-02T14:27:43.018Z,1.30
2022-08-02T14:30:10.585Z,1.33
2022-08-02T14:32:37.629Z,1.93
2022-08-02T14:35:04.972Z,1.80
2022-08-02T14:37:32.915Z,1.53
2022-08-02T14:40:01.184Z,1.40
2022-08-02T14:42:28.625Z,1.40
2022-08-02T14:44:55.610Z,1.70
2022-08-02T14:47:22.928Z,1.97
2022-08-02T14:49:50.616Z,1.50
2022-08-02T14:52:18.419Z,1.50
2022-08-02T14:54:46.811Z,1.70
2022-08-02T14:57:14.565Z,1.40
2022-08-02T14:59:42.216Z,1.97
2022-08-02T15:02:11.847Z,1.73
2022-08-02T15:04:42.708Z,1.73
2022-08-02T15:07:11.391Z,1.60
2022-08-02T15:09:39.581Z,1.70
2022-08-02T15:12:08.448Z,2.13
2022-08-02T15:14:35.574Z,1.70
2022-08-02T15:17:02.577Z,1.53
2022-08-02T15:19:56.541Z,1.70
2022-08-02T15:22:19.678Z,1.60
2022-08-02T15:24:47.545Z,1.53
2022-08-02T15:27:15.453Z,1.97
2022-08-02T15:29:46.814Z,1.80
2022-08-02T15:32:17.698Z,1.50
2022-08-02T15:34:45.662Z,1.50
2022-08-02T15:37:12.825Z,1.60
2022-08-02T15:39:39.951Z,2.30
2022-08-02T15:42:06.966Z,1.63
2022-08-02T15:44:34.040Z,1.67
2022-08-02T15:47:01.096Z,1.80
2022-08-02T15:49:28.136Z,1.77
2022-08-02T15:51:55.233Z,1.90
2022-08-02T15:54:22.371Z,1.60
2022-08-02T15:56:49.906Z,1.60
2022-08-02T15:59:17.577Z,1.50
2022-08-02T16:01:47.759Z,1.70
2022-08-02T16:04:16.224Z,1.83
2022-08-02T16:06:43.957Z,1.43
2022-08-02T16:09:11.078Z,1.80
2022-08-02T16:11:38.521Z,1.90
2022-08-02T16:14:06.219Z,1.73
2022-08-02T16:16:35.207Z,1.63
2022-08-02T16:19:47.850Z,1.80
2022-08-02T16:21:52.433Z,1.40
2022-08-02T16:24:19.891Z,1.80
2022-08-02T16:26:47.129Z,1.60
2022-08-02T16:29:14.388Z,1.70
2022-08-02T16:31:47.640Z,1.80
2022-08-02T16:34:15.585Z,1.60
2022-08-02T16:36:42.680Z,1.70
2022-08-02T16:39:10.036Z,1.93
2022-08-02T16:41:45.522Z,1.67
2022-08-02T16:44:27.590Z,1.83
2022-08-02T16:47:08.625Z,1.67
2022-08-02T16:52:22.520Z,1.63
2022-08-02T16:54:50.190Z,1.60
2022-08-02T16:57:19.767Z,1.40
2022-08-02T16:59:57.793Z,1.70
2022-08-02T17:02:26.764Z,2.10
2022-08-02T17:04:55.268Z,2.00
2022-08-02T17:08:06.303Z,2.37
2022-08-02T17:12:57.703Z,2.57
2022-08-02T17:16:01.587Z,1.80
2022-08-02T17:18:13.999Z,1.70
2022-08-02T17:20:41.094Z,2.00
2022-08-02T17:23:09.025Z,2.07
2022-08-02T17:25:43.815Z,2.33
2022-08-02T17:28:19.783Z,1.97
2022-08-02T17:30:46.763Z,1.93
2022-08-02T17:33:13.900Z,1.70
2022-08-02T17:35:52.530Z,1.93
2022-08-02T17:38:26.786Z,2.70
2022-08-02T17:40:56.280Z,1.67
2022-08-02T17:43:29.196Z,1.90
2022-08-02T17:49:02.713Z,1.80
2022-08-02T17:51:33.102Z,2.00
2022-08-02T17:54:18.863Z,2.50
2022-08-02T17:56:47.920Z,1.80
2022-08-02T17:59:20.402Z,1.90
2022-08-02T18:01:52.816Z,2.67
2022-08-02T18:04:38.407Z,2.40
2022-08-02T18:07:09.628Z,2.10
2022-08-02T18:09:43.445Z,2.47
2022-08-02T18:12:14.265Z,1.80
2022-08-02T18:14:48.818Z,2.20
2022-08-02T18:17:17.280Z,9.03
2022-08-02T18:19:55.460Z,4.30
2022-08-02T18:22:27.101Z,3.80
2022-08-02T18:24:54.513Z,3.93
2022-08-02T18:27:21.653Z,2.43
2022-08-02T18:29:48.792Z,1.70
2022-08-02T18:33:55.136Z,2.00
2022-08-02T18:35:14.771Z,2.70
2022-08-02T18:37:45.472Z,2.10
2022-08-02T18:40:17.399Z,2.70
2022-08-02T18:42:44.391Z,2.30
2022-08-02T18:45:19.559Z,3.10
2022-08-02T18:47:50.912Z,2.40
2022-08-02T18:50:19.910Z,2.07
2022-08-02T18:52:48.148Z,2.60
2022-08-02T18:55:17.695Z,2.20
2022-08-02T18:58:19.795Z,2.20
2022-08-02T19:00:51.472Z,2.97
2022-08-02T19:03:19.613Z,1.93
2022-08-02T19:05:53.230Z,2.30
2022-08-02T19:08:26.372Z,2.40
2022-08-02T19:10:56.018Z,2.30
2022-08-02T19:13:23.621Z,2.30
2022-08-02T19:15:51.153Z,2.10
2022-08-02T19:18:18.887Z,1.93
2022-08-02T19:20:48.380Z,6.40
2022-08-02T19:23:17.190Z,2.57
2022-08-02T19:25:54.425Z,2.60
2022-08-02T19:28:26.201Z,2.60
2022-08-02T19:30:55.141Z,3.00
2022-08-02T19:33:54.768Z,2.43
2022-08-02T19:36:09.865Z,2.50
2022-08-02T19:38:43.707Z,2.20
2022-08-02T19:41:13.761Z,2.57
2022-08-02T19:44:23.173Z,3.30
2022-08-02T19:46:27.909Z,2.17
2022-08-02T19:48:54.896Z,2.50
2022-08-02T19:51:50.022Z,2.23
2022-08-02T19:54:10.910Z,2.30
2022-08-02T19:56:40.463Z,2.67
2022-08-02T19:59:13.798Z,2.60
2022-08-02T20:01:46.381Z,2.17
2022-08-02T20:04:22.186Z,2.40
2022-08-02T20:06:51.018Z,2.67
2022-08-02T20:09:21.288Z,2.70
2022-08-02T20:11:54.384Z,2.20
2022-08-02T20:14:26.825Z,2.10
2022-08-02T20:16:56.776Z,2.83
2022-08-02T20:19:25.331Z,2.40
2022-08-02T20:22:00.036Z,2.60
2022-08-02T20:24:29.545Z,2.30
2022-08-02T20:26:59.360Z,2.13
2022-08-02T20:32:31.636Z,1.97
2022-08-02T20:34:58.695Z,2.30
2022-08-02T20:37:59.343Z,2.50
2022-08-02T20:40:17.114Z,1.60
2022-08-02T20:42:47.925Z,1.80
2022-08-02T20:45:15.814Z,2.10
2022-08-02T20:47:42.759Z,2.03
2022-08-02T20:50:32.452Z,2.03
2022-08-02T20:53:00.765Z,2.00
2022-08-02T20:55:31.125Z,2.03
2022-08-02T20:58:02.065Z,2.17
2022-08-02T21:00:30.440Z,2.60
2022-08-02T21:02:59.582Z,2.50
2022-08-02T21:05:43.691Z,2.40
2022-08-02T21:08:15.231Z,2.27
2022-08-02T21:10:43.981Z,2.20
2022-08-02T21:13:26.959Z,2.37
2022-08-02T21:15:55.214Z,1.93
2022-08-02T21:18:34.210Z,2.10
2022-08-02T21:21:09.550Z,2.20
2022-08-02T21:23:37.887Z,2.23
2022-08-02T21:26:09.051Z,1.70
2022-08-02T21:28:45.109Z,2.10
2022-08-02T21:31:15.844Z,2.17
2022-08-02T21:33:57.762Z,1.93
2022-08-02T21:36:32.193Z,1.73
2022-08-02T21:39:09.266Z,2.33
2022-08-02T21:41:46.622Z,2.10
2022-08-02T21:44:16.525Z,2.23
2022-08-02T21:46:48.820Z,2.30
2022-08-02T21:49:17.155Z,2.20
2022-08-02T21:51:49.387Z,1.80
2022-08-02T21:54:20.150Z,2.00
2022-08-02T21:56:53.219Z,2.27
2022-08-02T21:59:25.327Z,2.50
2022-08-02T22:01:56.646Z,2.20
2022-08-02T22:04:26.096Z,2.50
2022-08-02T22:06:55.171Z,2.70
2022-08-02T22:09:44.308Z,2.53
2022-08-02T22:12:17.035Z,2.30
2022-08-02T22:14:49.545Z,2.53
2022-08-02T22:17:20.754Z,2.70
2022-08-02T22:22:34.628Z,2.63
2022-08-02T22:25:01.791Z,2.37
2022-08-02T22:28:34.724Z,2.43
2022-08-02T22:30:18.439Z,2.50
2022-08-02T22:33:15.174Z,2.20
2022-08-02T22:35:42.756Z,2.10
2022-08-02T22:38:15.303Z,2.30
2022-08-02T22:40:50.056Z,2.40
2022-08-02T22:43:22.923Z,2.80
2022-08-02T22:45:50.921Z,2.60
2022-08-02T22:48:19.176Z,3.00
2022-08-02T22:50:47.480Z,2.80
2022-08-02T22:53:18.329Z,3.17
2022-08-02T22:55:51.740Z,2.20
2022-08-02T22:58:19.505Z,2.27
2022-08-02T22:58:48.814Z,2.27
2022-08-02T22:58:49.641Z,1.70
2022-08-02T22:58:49.768Z,1.90
2022-08-02T22:58:55.568Z,2.20
2022-08-02T22:59:10.806Z,2.87
2022-08-02T23:00:48.325Z,2.77
2022-08-02T23:03:15.396Z,2.40
2022-08-02T23:05:42.515Z,2.53
2022-08-02T23:08:09.504Z,2.57
2022-08-02T23:10:37.196Z,2.30
2022-08-02T23:13:04.192Z,2.83
2022-08-02T23:15:49.948Z,2.40
2022-08-02T23:18:35.666Z,2.77
2022-08-02T23:21:02.663Z,2.13
2022-08-02T23:23:29.580Z,2.43
2022-08-02T23:25:56.550Z,2.70
2022-08-02T23:28:23.650Z,2.90
2022-08-02T23:30:50.820Z,3.80
2022-08-02T23:33:17.769Z,5.00
2022-08-02T23:35:44.798Z,4.90
2022-08-02T23:38:11.762Z,4.50
2022-08-02T23:40:41.141Z,3.83
2022-08-02T23:43:13.843Z,3.73
2022-08-02T23:45:46.231Z,3.63
2022-08-02T23:56:50.199Z,3.90
2022-08-02T23:59:17.395Z,3.60
